Time;durP1;ratioP1;P1;durP2;ratioP2;P2;SDS_P1;SDS_P2;PMS_P1;PMS_P2;Temp;Humidity;BMP_temperature;BMP_pressure;BME280_temperature;BME280_humidity;BME280_pressure;Samples;Min_cycle;Max_cycle;Signal;HPM_P1;HPM_P2
2022/09/05 00:01:15;;;;;;;6.88;3.45;;;;;;;22.47;35.42;102079.63;5040968;27;97075;-67
2022/09/05 00:03:49;;;;;;;8.32;3.08;;;;;;;22.70;35.18;102070.09;5043322;27;98745;-69
2022/09/05 00:06:17;;;;;;;9.02;3.53;;;;;;;22.67;35.20;102074.69;5047632;27;96887;-67
2022/09/05 00:08:55;;;;;;;5.82;3.28;;;;;;;22.78;34.89;102076.69;5046623;27;99450;-66
2022/09/05 00:11:28;;;;;;;6.35;3.63;;;;;;;22.74;35.02;102072.50;5047567;27;98851;-67
2022/09/05 00:14:14;;;;;;;6.43;3.33;;;;;;;22.55;35.24;102063.84;5046130;27;96799;-67
2022/09/05 00:16:56;;;;;;;5.20;3.63;;;;;;;22.55;35.29;102056.63;5045725;27;96836;-67
2022/09/05 00:19:36;;;;;;;7.32;3.30;;;;;;;22.63;35.19;102070.47;5040667;27;98983;-67
2022/09/05 00:22:18;;;;;;;3.88;2.80;;;;;;;22.56;35.29;102070.97;5048743;27;98666;-67
2022/09/05 00:24:55;;;;;;;5.38;3.47;;;;;;;22.51;35.35;102071.25;5048781;27;98764;-67
2022/09/05 00:27:28;;;;;;;6.55;3.35;;;;;;;22.76;35.06;102069.72;5044051;27;97098;-67
2022/09/05 00:30:05;;;;;;;8.10;3.10;;;;;;;22.57;35.40;102070.88;5044613;27;99280;-67
2022/09/05 00:33:01;;;;;;;7.85;3.55;;;;;;;22.57;35.12;102076.28;5045887;27;98870;-67
2022/09/05 00:35:49;;;;;;;5.53;3.15;;;;;;;22.62;35.15;102070.56;5049802;27;97277;-66
2022/09/05 00:38:17;;;;;;;5.95;3.40;;;;;;;22.31;35.65;102074.38;5045758;27;96788;-67
2022/09/05 00:40:46;;;;;;;5.88;3.13;;;;;;;22.48;35.67;102068.78;5047764;27;100685;-66
2022/09/05 00:43:19;;;;;;;6.72;3.25;;;;;;;22.37;35.41;102076.69;5045561;27;98839;-67
2022/09/05 00:45:50;;;;;;;7.45;3.88;;;;;;;22.24;35.88;102086.50;5044134;27;96834;-67
2022/09/05 00:48:25;;;;;;;6.15;3.55;;;;;;;22.33;35.61;102080.53;5044459;27;97849;-67
2022/09/05 00:51:11;;;;;;;11.87;3.50;;;;;;;22.26;35.79;102080.03;5047432;27;98911;-66
2022/09/05 00:53:46;;;;;;;7.70;3.42;;;;;;;22.42;35.38;102077.25;5048703;27;98757;-66
2022/09/05 00:56:45;;;;;;;6.88;3.28;;;;;;;22.31;35.65;102085.16;5049327;27;96716;-67
2022/09/05 00:59:50;;;;;;;3.50;3.15;;;;;;;22.28;35.70;102082.66;5044730;27;97468;-66
2022/09/05 01:02:28;;;;;;;6.18;3.72;;;;;;;22.32;35.46;102080.63;5043050;27;99307;-66
2022/09/05 01:05:01;;;;;;;4.22;2.78;;;;;;;22.20;35.99;102091.19;5054519;27;97511;-66
2022/09/05 01:07:45;;;;;;;11.48;4.00;;;;;;;21.98;36.31;102084.59;5046326;27;97006;-67
2022/09/05 01:10:23;;;;;;;5.90;3.70;;;;;;;22.14;36.05;102082.66;5048542;27;96853;-66
2022/09/05 01:13:15;;;;;;;5.82;3.42;;;;;;;22.17;36.11;102077.09;5043198;27;97947;-66
2022/09/05 01:15:52;;;;;;;7.85;3.97;;;;;;;22.12;36.14;102084.59;5048245;27;98032;-67
2022/09/05 01:18:32;;;;;;;9.20;4.20;;;;;;;22.04;36.10;102089.59;5042957;27;96862;-67
2022/09/05 01:21:25;;;;;;;8.13;3.72;;;;;;;21.99;36.34;102084.47;5047893;27;97176;-66
2022/09/05 01:24:10;;;;;;;4.70;3.30;;;;;;;21.91;36.57;102080.50;5045077;27;99329;-67
2022/09/05 01:27:14;;;;;;;5.63;3.60;;;;;;;21.86;36.45;102076.25;5047785;27;98822;-67
2022/09/05 01:29:50;;;;;;;6.72;3.50;;;;;;;21.77;36.60;102084.03;5052377;27;96878;-67
2022/09/05 01:32:30;;;;;;;9.18;4.03;;;;;;;21.76;36.84;102077.78;5044367;27;96810;-66
2022/09/05 01:35:19;;;;;;;8.57;3.90;;;;;;;22.02;36.15;102095.06;5046792;27;98729;-67
2022/09/05 01:37:48;;;;;;;7.05;3.60;;;;;;;21.88;36.61;102090.50;5042645;27;99159;-67
2022/09/05 01:40:23;;;;;;;9.00;3.92;;;;;;;21.80;36.71;102090.09;5045841;27;97362;-66
2022/09/05 01:43:02;;;;;;;11.98;3.60;;;;;;;21.91;36.65;102088.56;5051391;27;97829;-66
2022/09/05 01:45:47;;;;;;;7.25;3.67;;;;;;;21.86;36.73;102086.16;5048886;27;99249;-66
2022/09/05 01:48:27;;;;;;;6.88;3.97;;;;;;;21.93;36.74;102086.63;5047869;27;100339;-67
2022/09/05 01:51:02;;;;;;;8.82;3.90;;;;;;;21.87;36.64;102090.56;5044991;27;98755;-67
2022/09/05 01:53:39;;;;;;;6.47;3.93;;;;;;;21.70;37.08;102097.00;5047953;27;98528;-67
2022/09/05 01:56:16;;;;;;;10.15;3.92;;;;;;;21.73;36.96;102098.63;5052894;27;99380;-66
2022/09/05 01:58:58;;;;;;;7.85;4.10;;;;;;;21.65;37.36;102101.81;5047374;27;99008;-66
2022/09/05 02:01:32;;;;;;;6.10;4.13;;;;;;;21.41;37.94;102097.88;5050951;27;96637;-66
2022/09/05 02:04:14;;;;;;;6.25;3.33;;;;;;;21.40;37.66;102107.75;5051625;27;96775;-67
2022/09/05 02:06:55;;;;;;;7.45;3.97;;;;;;;21.54;37.65;102104.25;5040745;27;99501;-67
2022/09/05 02:09:40;;;;;;;9.15;4.32;;;;;;;21.49;37.47;102100.97;5049657;27;99168;-67
2022/09/05 02:12:20;;;;;;;9.70;3.88;;;;;;;21.62;37.65;102104.66;5048779;27;96798;-67
2022/09/05 02:14:56;;;;;;;7.20;3.65;;;;;;;21.60;37.47;102106.56;5051651;27;97167;-67
2022/09/05 02:17:34;;;;;;;8.30;3.95;;;;;;;21.36;38.13;102110.72;5051258;27;98996;-66
2022/09/05 02:20:11;;;;;;;7.80;4.25;;;;;;;21.49;37.83;102103.66;5050918;27;99241;-66
2022/09/05 02:22:41;;;;;;;;;;;;;;;21.37;37.97;102113.34;5049891;27;97088;-67
2022/09/05 02:25:16;;;;;;;8.75;3.80;;;;;;;21.61;37.56;102112.81;5050822;27;96739;-66
2022/09/05 02:27:49;;;;;;;6.60;4.10;;;;;;;21.46;37.76;102107.38;5045685;27;99232;-67
2022/09/05 02:30:19;;;;;;;9.30;3.90;;;;;;;21.55;37.76;102110.50;5050228;27;98963;-66
2022/09/05 02:33:02;;;;;;;4.97;3.42;;;;;;;21.56;37.85;102113.09;5050684;27;96828;-66
2022/09/05 02:35:34;;;;;;;6.13;4.07;;;;;;;21.57;37.76;102109.47;5052583;27;97585;-67
2022/09/05 02:38:08;;;;;;;10.13;4.68;;;;;;;21.56;37.66;102107.72;5045380;27;98933;-66
2022/09/05 02:40:42;;;;;;;7.47;4.15;;;;;;;21.46;37.87;102109.25;5051009;27;98866;-66
2022/09/05 02:43:19;;;;;;;6.57;4.38;;;;;;;21.64;37.63;102108.13;5047123;27;97739;-66
2022/09/05 02:45:56;;;;;;;9.88;4.13;;;;;;;21.57;37.56;102109.47;5046928;27;98514;-66
2022/09/05 02:48:31;;;;;;;7.53;3.85;;;;;;;21.47;37.92;102109.13;5053714;27;99035;-67
2022/09/05 02:51:09;;;;;;;7.75;4.38;;;;;;;21.33;38.06;102116.31;5049026;27;99283;-68
2022/09/05 02:53:41;;;;;;;7.03;3.78;;;;;;;21.43;38.00;102109.41;5037653;27;97989;-67
2022/09/05 02:56:25;;;;;;;7.95;4.10;;;;;;;21.38;38.14;102114.19;5045495;27;97038;-67
2022/09/05 02:59:03;;;;;;;5.88;3.63;;;;;;;21.47;37.76;102119.88;5049153;27;99413;-67
2022/09/05 03:01:47;;;;;;;8.40;4.15;;;;;;;21.50;38.01;102112.59;5052191;27;100831;-67
2022/09/05 03:04:27;;;;;;;6.20;3.88;;;;;;;21.37;38.34;102113.34;5047925;27;96901;-67
2022/09/05 03:07:09;;;;;;;6.82;4.10;;;;;;;21.39;38.18;102115.94;5045733;27;97489;-67
2022/09/05 03:09:47;;;;;;;10.60;3.97;;;;;;;21.44;38.02;102113.84;5053037;27;99277;-67
2022/09/05 03:12:38;;;;;;;7.28;4.28;;;;;;;21.48;37.92;102110.88;5046381;27;101932;-67
2022/09/05 03:15:27;;;;;;;6.80;3.80;;;;;;;21.39;38.23;102105.19;5044594;27;96888;-67
2022/09/05 03:18:31;;;;;;;9.25;3.95;;;;;;;21.42;38.17;102105.00;5050036;27;96948;-67
2022/09/05 03:21:40;;;;;;;9.05;4.57;;;;;;;21.21;38.58;102103.56;5047566;27;98952;-67
2022/09/05 03:24:49;;;;;;;5.95;3.65;;;;;;;21.20;38.41;102099.16;5049695;27;97959;-68
2022/09/05 03:27:44;;;;;;;7.30;3.88;;;;;;;21.05;38.77;102117.00;5048619;27;96965;-66
2022/09/05 03:30:15;;;;;;;11.18;4.32;;;;;;;21.02;38.79;102107.28;5045257;27;98384;-67
2022/09/05 03:33:05;;;;;;;9.57;3.55;;;;;;;21.11;38.78;102100.53;5049963;27;101634;-67
2022/09/05 03:36:09;;;;;;;8.43;4.10;;;;;;;20.99;38.95;102104.78;5049148;27;98949;-67
2022/09/05 03:39:20;;;;;;;8.55;4.00;;;;;;;21.03;39.03;102108.16;5047582;27;96699;-67
2022/09/05 03:42:09;;;;;;;11.52;4.25;;;;;;;20.91;39.21;102109.75;5049382;27;96760;-67
2022/09/05 03:44:44;;;;;;;6.03;3.92;;;;;;;21.01;39.02;102108.25;5047419;27;99268;-67
2022/09/05 03:47:36;;;;;;;7.55;4.00;;;;;;;20.97;39.20;102112.06;5049107;27;99168;-67
2022/09/05 03:50:29;;;;;;;6.22;3.90;;;;;;;20.93;39.22;102115.91;5047076;27;96872;-67
2022/09/05 03:53:24;;;;;;;7.97;3.90;;;;;;;20.74;39.41;102109.84;5053093;27;97223;-67
2022/09/05 03:56:10;;;;;;;8.77;3.50;;;;;;;20.77;39.33;102106.97;5038535;27;98918;-67
2022/09/05 03:58:59;;;;;;;6.68;4.25;;;;;;;20.92;39.01;102106.09;5044971;27;99165;-67
2022/09/05 04:01:34;;;;;;;7.18;3.88;;;;;;;20.63;39.48;102104.19;5046805;27;96789;-67
2022/09/05 04:04:05;;;;;;;7.53;3.20;;;;;;;20.83;39.41;102106.63;5050104;27;96937;-67
2022/09/05 04:06:36;;;;;;;5.80;3.80;;;;;;;20.75;39.51;102106.19;5042263;27;99023;-67
2022/09/05 04:09:09;;;;;;;6.05;4.00;;;;;;;20.80;39.31;102114.88;5049412;27;101212;-67
2022/09/05 04:11:41;;;;;;;9.32;3.45;;;;;;;20.59;39.74;102113.38;5048546;27;96806;-67
2022/09/05 04:14:13;;;;;;;5.25;3.20;;;;;;;20.89;39.48;102114.31;5048683;27;96879;-67
2022/09/05 04:16:48;;;;;;;10.70;4.28;;;;;;;20.93;39.34;102123.09;5044877;27;97959;-66
2022/09/05 04:19:19;;;;;;;7.03;3.60;;;;;;;20.90;39.21;102113.38;5046193;27;99246;-66
2022/09/05 04:21:54;;;;;;;12.35;3.80;;;;;;;21.06;39.01;102108.00;5044505;27;96954;-66
2022/09/05 04:24:33;;;;;;;7.75;3.40;;;;;;;20.97;39.17;102114.75;5049495;27;97043;-65
2022/09/05 04:27:19;;;;;;;4.55;3.25;;;;;;;21.07;39.15;102117.75;5046235;27;100813;-66
2022/09/05 04:29:58;;;;;;;8.35;3.35;;;;;;;20.94;39.15;102111.38;5045832;27;99178;-68
2022/09/05 04:32:36;;;;;;;9.88;4.25;;;;;;;20.92;39.08;102119.53;5046979;27;98507;-68
2022/09/05 04:35:21;;;;;;;10.93;4.07;;;;;;;20.79;39.27;102120.31;5048410;27;96947;-67
2022/09/05 04:37:58;;;;;;;5.13;3.00;;;;;;;20.86;39.30;102116.31;5043839;27;99228;-67
2022/09/05 04:40:47;;;;;;;7.60;3.67;;;;;;;20.75;39.48;102124.97;5044325;27;99181;-68
2022/09/05 04:43:25;;;;;;;6.93;3.40;;;;;;;20.89;39.10;102122.38;5042206;27;96909;-66
2022/09/05 04:45:59;;;;;;;8.40;3.33;;;;;;;20.88;39.38;102131.38;5040394;27;97305;-67
2022/09/05 04:48:35;;;;;;;6.38;3.53;;;;;;;20.80;39.44;102132.78;5052695;27;99251;-66
2022/09/05 04:51:06;;;;;;;;;;;;;;;20.75;39.40;102119.59;5041398;27;98954;-66
2022/09/05 04:53:56;;;;;;;4.93;2.92;;;;;;;20.76;39.48;102126.72;5045264;27;96754;-68
2022/09/05 04:56:27;;;;;;;5.22;3.03;;;;;;;20.95;39.28;102122.03;5046133;27;96800;-67
2022/09/05 04:59:01;;;;;;;8.05;3.90;;;;;;;21.06;39.17;102125.00;5046146;27;100059;-67
2022/09/05 05:01:33;;;;;;;5.85;3.15;;;;;;;20.99;39.07;102123.59;5045691;27;99314;-66
2022/09/05 05:04:06;;;;;;;6.45;3.17;;;;;;;21.10;38.77;102122.97;5042749;27;97686;-67
2022/09/05 05:06:38;;;;;;;8.32;3.17;;;;;;;20.78;39.31;102127.50;5047293;27;96834;-67
2022/09/05 05:09:12;;;;;;;6.13;3.22;;;;;;;21.09;39.00;102134.69;5044642;27;101967;-67
2022/09/05 05:11:52;;;;;;;9.65;3.33;;;;;;;21.23;38.95;102137.47;5041840;27;98966;-66
2022/09/05 05:14:24;;;;;;;7.45;3.30;;;;;;;21.47;38.46;102140.53;5046794;27;96849;-67
2022/09/05 05:16:55;;;;;;;9.90;3.33;;;;;;;21.44;38.41;102136.22;5042136;27;97302;-67
2022/09/05 05:19:28;;;;;;;8.60;3.20;;;;;;;21.65;37.90;102134.09;5049707;27;100232;-68
2022/09/05 05:21:57;;;;;;;7.50;3.47;;;;;;;21.55;38.16;102137.41;5047572;27;98564;-68
2022/09/05 05:24:28;;;;;;;6.80;3.20;;;;;;;21.61;38.21;102142.41;5047162;27;96844;-67
2022/09/05 05:27:01;;;;;;;10.25;3.63;;;;;;;21.64;38.13;102148.47;5053011;27;97539;-67
2022/09/05 05:29:42;;;;;;;6.95;3.10;;;;;;;21.76;38.01;102153.13;5046226;27;99443;-67
2022/09/05 05:32:13;;;;;;;4.63;2.85;;;;;;;21.61;38.38;102145.97;5045164;27;98223;-66
2022/09/05 05:34:45;;;;;;;11.95;3.55;;;;;;;21.64;38.18;102148.47;5046043;27;97625;-68
2022/09/05 05:37:20;;;;;;;8.45;3.45;;;;;;;21.56;38.67;102149.88;5047428;27;96801;-66
2022/09/05 05:39:53;;;;;;;7.72;3.00;;;;;;;21.55;38.53;102153.53;5047837;27;99085;-67
2022/09/05 05:42:23;;;;;;;4.70;2.78;;;;;;;21.63;38.28;102165.56;5041513;27;99117;-67
2022/09/05 05:44:52;;;;;;;13.40;3.65;;;;;;;21.42;38.79;102165.00;5048723;27;96920;-68
2022/09/05 05:47:21;;;;;;;8.05;3.90;;;;;;;21.58;38.58;102165.00;5046736;27;96982;-67
2022/09/05 05:50:00;;;;;;;4.00;2.75;;;;;;;21.54;38.42;102168.81;5050929;27;99373;-68
2022/09/05 05:52:57;;;;;;;10.00;3.35;;;;;;;21.65;38.53;102157.41;5049366;27;99044;-67
2022/09/05 05:55:52;;;;;;;7.97;2.93;;;;;;;21.73;38.30;102158.69;5040527;27;96895;-68
2022/09/05 05:58:33;;;;;;;7.35;3.03;;;;;;;21.64;38.38;102158.38;5047490;27;96758;-68
2022/09/05 06:01:44;;;;;;;12.38;3.10;;;;;;;21.49;38.91;102162.84;5050938;27;99030;-67
2022/09/05 06:04:42;;;;;;;6.78;2.70;;;;;;;21.54;38.96;102162.56;5029683;27;97733;-68
2022/09/05 06:07:18;;;;;;;4.30;2.80;;;;;;;21.61;38.79;102164.78;5044698;27;98383;-67
2022/09/05 06:10:12;;;;;;;7.20;3.20;;;;;;;21.81;38.46;102158.22;5045820;27;96773;-67
2022/09/05 06:13:28;;;;;;;7.35;2.75;;;;;;;21.95;38.24;102162.78;5049037;27;98728;-68
2022/09/05 06:16:21;;;;;;;8.25;3.20;;;;;;;22.07;37.77;102162.03;5047500;27;98870;-68
2022/09/05 06:19:23;;;;;;;10.73;2.97;;;;;;;22.27;37.67;102164.38;5049194;27;96966;-67
2022/09/05 06:22:27;;;;;;;8.50;2.78;;;;;;;22.17;38.05;102168.63;5043577;27;96751;-68
2022/09/05 06:25:41;;;;;;;7.60;3.10;;;;;;;22.35;37.66;102167.47;5053111;27;98287;-67
2022/09/05 06:28:21;;;;;;;10.90;2.90;;;;;;;22.55;37.41;102169.78;5043675;27;98706;-67
2022/09/05 06:30:58;;;;;;;10.32;3.10;;;;;;;22.80;37.17;102173.63;5051437;27;96768;-68
2022/09/05 06:33:45;;;;;;;8.07;3.03;;;;;;;22.96;36.71;102169.00;5047737;27;96975;-67
2022/09/05 06:36:31;;;;;;;10.38;3.45;;;;;;;22.85;37.11;102174.19;5048440;27;99296;-67
2022/09/05 06:39:15;;;;;;;9.35;3.15;;;;;;;22.97;37.09;102171.56;5047326;27;98840;-67
2022/09/05 06:41:59;;;;;;;5.38;3.00;;;;;;;23.06;36.72;102170.09;5044809;27;96929;-66
2022/09/05 06:45:02;;;;;;;5.50;2.85;;;;;;;23.38;36.20;102171.53;5055158;27;97036;-68
2022/09/05 06:47:33;;;;;;;12.55;3.40;;;;;;;22.79;37.56;102182.66;5047924;27;98916;-68
2022/09/05 06:50:10;;;;;;;9.23;2.88;;;;;;;23.15;37.27;102179.44;5055388;27;98800;-68
2022/09/05 06:53:07;;;;;;;8.48;3.10;;;;;;;23.07;37.40;102179.06;5050883;27;97090;-67
2022/09/05 06:55:50;;;;;;;8.23;2.67;;;;;;;23.09;37.09;102179.84;5039964;27;98130;-68
2022/09/05 06:59:03;;;;;;;7.00;2.92;;;;;;;23.26;36.93;102195.75;5048346;27;100090;-68
2022/09/05 07:01:33;;;;;;;6.63;3.10;;;;;;;23.49;36.64;102197.84;5047999;27;98940;-67
2022/09/05 07:04:21;;;;;;;8.02;3.50;;;;;;;23.61;36.66;102193.44;5045572;27;96789;-67
2022/09/05 07:07:03;;;;;;;9.65;3.55;;;;;;;23.56;36.55;102195.59;5046285;27;96871;-68
2022/09/05 07:09:37;;;;;;;10.13;2.53;;;;;;;23.67;36.08;102196.59;5050237;27;98891;-67
2022/09/05 07:12:16;;;;;;;6.28;3.03;;;;;;;23.53;36.97;102201.19;5051194;27;98891;-68
2022/09/05 07:14:54;;;;;;;8.98;3.20;;;;;;;23.41;37.21;102198.31;5044739;27;96649;-67
2022/09/05 07:17:34;;;;;;;8.95;2.92;;;;;;;23.61;36.78;102204.25;5054443;27;96765;-68
2022/09/05 07:20:04;;;;;;;7.78;2.70;;;;;;;23.54;36.93;102205.63;5042747;27;98374;-67
2022/09/05 07:22:37;;;;;;;6.82;2.80;;;;;;;24.06;36.12;102198.41;5050603;27;98130;-68
2022/09/05 07:25:08;;;;;;;7.20;2.90;;;;;;;24.07;36.23;102208.25;5044346;27;96886;-67
2022/09/05 07:27:38;;;;;;;5.47;2.95;;;;;;;24.07;36.29;102194.75;5051141;27;96781;-69
2022/09/05 07:30:06;;;;;;;10.73;2.95;;;;;;;24.21;35.78;102201.91;5049022;27;101756;-67
2022/09/05 07:32:41;;;;;;;7.22;3.00;;;;;;;24.46;35.43;102199.22;5047203;27;99076;-69
2022/09/05 07:35:15;;;;;;;13.13;3.03;;;;;;;24.28;35.58;102202.34;5050533;27;96845;-69
2022/09/05 07:37:45;;;;;;;9.75;2.78;;;;;;;24.29;35.67;102201.34;5045193;27;96744;-67
2022/09/05 07:40:16;;;;;;;12.00;3.03;;;;;;;24.37;35.38;102204.38;5051973;27;97098;-68
2022/09/05 07:42:47;;;;;;;10.05;3.50;;;;;;;24.30;35.50;102203.94;5046990;27;98854;-67
2022/09/05 07:45:22;;;;;;;8.48;3.30;;;;;;;24.39;35.35;102200.63;5045568;27;96913;-67
2022/09/05 07:47:57;;;;;;;8.63;3.83;;;;;;;24.60;35.27;102204.50;5050218;27;96718;-67
2022/09/05 07:50:26;;;;;;;11.25;3.83;;;;;;;24.59;35.85;102210.00;5049876;27;99049;-68
2022/09/05 07:52:56;;;;;;;11.55;3.55;;;;;;;24.61;35.38;102208.06;5051208;27;98191;-67
2022/09/05 07:55:28;;;;;;;8.55;3.10;;;;;;;24.45;35.67;102207.41;5049507;27;96685;-67
2022/09/05 07:57:59;;;;;;;28.15;3.30;;;;;;;24.71;35.59;102209.13;5045058;27;98226;-67
2022/09/05 08:00:27;;;;;;;14.40;3.60;;;;;;;25.13;35.13;102212.44;5049980;27;99430;-68
2022/09/05 08:02:58;;;;;;;8.25;2.80;;;;;;;25.27;34.55;102210.41;5031278;27;99617;-67
2022/09/05 08:05:33;;;;;;;12.50;3.40;;;;;;;25.29;34.54;102205.75;5045524;27;98937;-68
2022/09/05 08:08:03;;;;;;;10.53;2.93;;;;;;;25.44;34.05;102209.16;5048951;27;97183;-67
2022/09/05 08:10:35;;;;;;;4.90;2.92;;;;;;;25.51;33.75;102207.72;5051438;27;99061;-67
2022/09/05 08:13:10;;;;;;;5.03;3.10;;;;;;;25.57;34.05;102210.00;5044372;27;98929;-67
2022/09/05 08:15:44;;;;;;;8.00;3.35;;;;;;;25.50;33.97;102203.28;5047687;27;97335;-68
2022/09/05 08:18:17;;;;;;;6.35;2.95;;;;;;;25.34;34.31;102208.09;5047128;27;97447;-68
2022/09/05 08:20:48;;;;;;;7.63;3.22;;;;;;;25.31;34.17;102213.75;5047439;27;98240;-68
2022/09/05 08:23:37;;;;;;;9.75;2.95;;;;;;;25.09;34.63;102217.19;5042716;27;99112;-68
2022/09/05 08:26:12;;;;;;;7.30;2.90;;;;;;;25.55;33.85;102208.34;5044690;27;97865;-68
2022/09/05 08:28:54;;;;;;;7.70;2.85;;;;;;;25.49;34.00;102203.38;5048575;27;96870;-68
2022/09/05 08:31:27;;;;;;;8.02;3.20;;;;;;;25.23;34.21;102208.03;5039894;27;98285;-67
2022/09/05 08:34:00;;;;;;;3.90;2.80;;;;;;;25.16;34.91;102207.63;5042663;27;100541;-68
2022/09/05 08:36:33;;;;;;;4.68;2.80;;;;;;;25.29;34.38;102196.78;5043475;27;97436;-67
2022/09/05 08:39:10;;;;;;;4.93;3.15;;;;;;;25.16;34.89;102193.25;5045682;27;96788;-68
2022/09/05 08:41:50;;;;;;;9.85;3.00;;;;;;;25.26;34.97;102194.31;5049265;27;101007;-68
2022/09/05 08:44:22;;;;;;;5.07;2.60;;;;;;;25.60;34.39;102195.38;5041983;27;98885;-68
2022/09/05 08:46:53;;;;;;;7.13;2.78;;;;;;;25.84;33.46;102179.09;5046831;27;96808;-67
2022/09/05 08:49:44;;;;;;;7.93;3.20;;;;;;;25.72;33.52;102180.91;5048798;27;96811;-68
2022/09/05 08:52:19;;;;;;;7.35;3.10;;;;;;;25.72;33.96;102179.06;5045083;27;100086;-68
2022/09/05 08:54:57;;;;;;;4.40;3.20;;;;;;;25.62;34.38;102180.72;5047682;27;98850;-67
2022/09/05 08:57:51;;;;;;;9.18;4.30;;;;;;;25.78;34.15;102181.28;5044357;27;97513;-67
2022/09/05 09:00:19;;;;;;;5.75;2.97;;;;;;;25.73;34.13;102175.34;5046251;27;96774;-68
2022/09/05 09:03:01;;;;;;;10.85;3.75;;;;;;;25.78;33.93;102169.59;5044468;27;100282;-68
2022/09/05 09:05:57;;;;;;;11.05;3.78;;;;;;;25.80;34.46;102178.44;5042743;27;98799;-67
2022/09/05 09:08:41;;;;;;;5.28;3.13;;;;;;;26.32;33.58;102169.84;5042454;27;96729;-67
2022/09/05 09:11:15;;;;;;;6.75;3.03;;;;;;;26.72;33.04;102158.50;5049673;27;97674;-68
2022/09/05 09:13:52;;;;;;;5.85;2.97;;;;;;;26.82;32.71;102162.19;5046147;27;98992;-68
2022/09/05 09:16:29;;;;;;;4.43;2.70;;;;;;;26.65;32.86;102165.44;5047334;27;99283;-68
2022/09/05 09:19:09;;;;;;;8.48;2.60;;;;;;;26.82;32.71;102163.06;5045316;27;96742;-68
2022/09/05 09:21:41;;;;;;;6.22;2.88;;;;;;;26.85;32.61;102167.34;5042797;27;97325;-68
2022/09/05 09:24:21;;;;;;;6.72;3.00;;;;;;;26.68;33.23;102170.59;5048707;27;99403;-68
2022/09/05 09:26:54;;;;;;;8.70;2.70;;;;;;;26.90;32.82;102165.19;5045132;27;99084;-68
2022/09/05 09:29:23;;;;;;;7.28;3.45;;;;;;;26.73;32.82;102173.78;5047018;27;97274;-68
2022/09/05 09:32:03;;;;;;;19.25;3.40;;;;;;;26.72;32.94;102161.22;5048421;27;97100;-68
2022/09/05 09:34:42;;;;;;;7.70;3.13;;;;;;;26.86;32.88;102159.09;5046050;27;98960;-68
2022/09/05 09:37:50;;;;;;;6.18;3.30;;;;;;;26.83;33.34;102164.81;5045104;27;101235;-68
2022/09/05 09:40:29;;;;;;;7.03;2.80;;;;;;;27.37;31.95;102164.78;5046684;27;97392;-67
2022/09/05 09:43:04;;;;;;;15.52;3.40;;;;;;;27.21;32.44;102158.94;5043717;27;96837;-67
2022/09/05 09:49:02;;;;;;;5.65;3.10;;;;;;;27.33;32.08;102159.75;5071926;27;96616;-67
2022/09/05 09:52:07;;;;;;;7.47;2.90;;;;;;;27.41;32.08;102159.13;5046706;27;96928;-68
2022/09/05 09:55:16;;;;;;;4.35;2.70;;;;;;;27.09;32.76;102159.09;5043867;27;98968;-67
2022/09/05 09:58:04;;;;;;;6.55;2.78;;;;;;;27.36;32.24;102164.94;5021740;27;99190;-67
2022/09/05 10:00:50;;;;;;;4.22;2.75;;;;;;;27.36;32.08;102160.38;5046696;27;96826;-67
2022/09/05 10:03:41;;;;;;;6.22;2.55;;;;;;;27.59;32.01;102150.31;5050092;27;97080;-67
2022/09/05 10:06:57;;;;;;;4.07;2.65;;;;;;;27.82;31.71;102151.06;5046654;27;99170;-67
2022/09/05 10:09:36;;;;;;;5.10;2.60;;;;;;;27.73;31.63;102149.13;4967615;28;98850;-67
2022/09/05 10:12:28;;;;;;;5.35;2.35;;;;;;;27.77;31.42;102145.13;4967806;28;96843;-67
2022/09/05 10:15:01;;;;;;;6.40;2.80;;;;;;;27.60;31.91;102145.75;5021905;27;97863;-67
2022/09/05 10:18:18;;;;;;;2.92;2.63;;;;;;;27.64;32.08;102130.91;5045626;27;99578;-67
2022/09/05 10:21:01;;;;;;;3.72;2.65;;;;;;;27.86;31.70;102133.50;5047491;27;99633;-67
2022/09/05 10:23:52;;;;;;;8.77;2.75;;;;;;;27.77;31.86;102134.28;5046708;27;96903;-67
2022/09/05 10:26:43;;;;;;;3.90;2.50;;;;;;;27.80;31.60;102136.75;5046170;27;96821;-67
2022/09/05 10:29:25;;;;;;;4.38;2.30;;;;;;;27.65;31.64;102129.91;5048164;27;99259;-67
2022/09/05 10:31:56;;;;;;;4.05;2.58;;;;;;;27.58;32.11;102123.28;5046492;27;98813;-67
2022/09/05 10:34:24;;;;;;;6.85;3.05;;;;;;;27.76;32.00;102127.16;5046081;27;96797;-68
2022/09/05 10:37:06;;;;;;;5.60;2.40;;;;;;;27.84;31.62;102121.91;5045981;27;97081;-68
2022/09/05 10:39:36;;;;;;;8.48;3.03;;;;;;;27.94;31.41;102119.25;5049481;27;98834;-68
2022/09/05 10:42:13;;;;;;;5.15;2.53;;;;;;;27.65;32.13;102110.91;5047672;27;98890;-67
2022/09/05 10:44:47;;;;;;;2.92;2.13;;;;;;;27.67;31.67;102106.22;5050883;27;98449;-67
2022/09/05 10:47:25;;;;;;;9.55;2.97;;;;;;;27.81;31.91;102107.72;5045934;27;97335;-67
2022/09/05 10:50:02;;;;;;;9.88;2.78;;;;;;;28.04;31.30;102099.28;5047545;27;99479;-67
2022/09/05 10:52:35;;;;;;;7.85;2.70;;;;;;;28.03;31.34;102105.72;5049219;27;99253;-69
2022/09/05 10:55:18;;;;;;;6.88;3.10;;;;;;;28.04;31.39;102093.84;5041326;27;96878;-67
2022/09/05 10:58:12;;;;;;;6.25;2.78;;;;;;;27.96;31.36;102096.38;5041572;27;96831;-69
2022/09/05 11:00:56;;;;;;;6.57;2.72;;;;;;;27.96;31.57;102090.09;5030687;27;99627;-67
2022/09/05 11:03:40;;;;;;;5.20;2.60;;;;;;;27.79;31.45;102094.28;5030002;27;99479;-68
2022/09/05 11:06:14;;;;;;;4.80;2.83;;;;;;;27.98;31.51;102088.09;5031483;27;97581;-67
2022/09/05 11:08:50;;;;;;;5.80;2.30;;;;;;;28.05;30.96;102090.13;5034036;28;96814;-68
2022/09/05 11:11:21;;;;;;;3.38;2.40;;;;;;;28.13;31.21;102082.19;5025188;28;98792;-67
2022/09/05 11:13:52;;;;;;;6.68;2.40;;;;;;;28.29;30.82;102080.84;5035894;27;99372;-67
2022/09/05 11:16:27;;;;;;;12.48;2.60;;;;;;;28.37;30.58;102067.41;5032574;28;98205;-70
2022/09/05 11:19:01;;;;;;;10.10;2.67;;;;;;;28.24;30.65;102067.66;5034837;27;97791;-67
2022/09/05 11:21:52;;;;;;;6.93;2.33;;;;;;;28.20;29.96;102066.22;5033919;28;100910;-67
2022/09/05 11:24:30;;;;;;;5.30;2.45;;;;;;;28.13;29.67;102075.88;5030772;28;99177;-66
2022/09/05 11:27:04;;;;;;;8.52;2.83;;;;;;;27.85;30.38;102072.00;5031709;27;97137;-68
2022/09/05 11:29:40;;;;;;;5.50;2.38;;;;;;;27.94;30.19;102065.78;5035556;28;97097;-68
2022/09/05 11:32:21;;;;;;;;;;;;;;;27.82;30.35;102066.88;5031739;28;98816;-67
2022/09/05 11:35:05;;;;;;;4.40;2.45;;;;;;;28.01;29.95;102069.69;5029535;28;97754;-68
2022/09/05 11:37:52;;;;;;;2.95;2.45;;;;;;;28.30;29.62;102064.38;5033118;28;98130;-67
2022/09/05 11:40:51;;;;;;;6.60;2.88;;;;;;;28.40;29.24;102061.72;5027987;28;96967;-67
2022/09/05 11:43:50;;;;;;;4.22;2.28;;;;;;;28.40;29.54;102064.44;5030513;28;99379;-68
2022/09/05 11:46:27;;;;;;;3.78;2.25;;;;;;;28.40;29.64;102067.16;5029524;28;99211;-67
2022/09/05 11:49:17;;;;;;;5.82;2.40;;;;;;;28.55;29.49;102069.31;5031114;27;96954;-67
2022/09/05 11:52:32;;;;;;;5.50;2.53;;;;;;;28.59;29.35;102061.75;5032980;28;96865;-68
2022/09/05 11:55:37;;;;;;;6.32;2.50;;;;;;;28.76;29.26;102055.66;5032553;28;97848;-67
2022/09/05 11:58:27;;;;;;;2.70;2.15;;;;;;;28.50;29.09;102055.28;5032310;28;96985;-67
2022/09/05 12:01:06;;;;;;;4.60;2.17;;;;;;;28.52;29.31;102055.16;5031948;28;97948;-66
2022/09/05 12:04:03;;;;;;;5.78;2.63;;;;;;;28.84;29.03;102060.41;5033689;28;96726;-67
2022/09/05 12:07:06;;;;;;;5.38;2.72;;;;;;;28.96;28.62;102059.25;5020719;27;99293;-67
2022/09/05 12:09:47;;;;;;;4.97;2.30;;;;;;;28.96;28.67;102050.25;5034022;27;97611;-67
2022/09/05 12:12:23;;;;;;;2.30;2.10;;;;;;;29.28;28.39;102050.81;5031569;27;96830;-67
2022/09/05 12:15:10;;;;;;;5.22;2.90;;;;;;;29.32;28.37;102044.09;5033407;28;96873;-68
2022/09/05 12:17:49;;;;;;;4.32;2.67;;;;;;;29.03;28.51;102044.09;5028166;27;100231;-66
2022/09/05 12:20:22;;;;;;;4.55;3.00;;;;;;;28.94;28.80;102047.69;5030268;28;98896;-68
2022/09/05 12:22:55;;;;;;;5.43;2.63;;;;;;;29.01;28.53;102039.81;5033015;27;96783;-68
2022/09/05 12:25:27;;;;;;;6.25;2.50;;;;;;;29.02;28.23;102039.66;5030224;28;97499;-68
2022/09/05 12:27:59;;;;;;;9.73;2.40;;;;;;;29.16;28.21;102028.34;5030763;27;97920;-69
2022/09/05 12:30:31;;;;;;;2.83;2.35;;;;;;;29.33;28.41;102021.31;5029993;28;99137;-68